RJOA/HIJ METAR and TAF weather

Enter ICAO airport designator
Station Type Date Time Source
RJOA METAR 2019/10/22 13:00 UTC NOAA

RJOA 221300Z 01006KT 340V050 9999 FEW020 SCT/// 17/09 Q1016


Station Type Date Time Source
RJOA Decoded METAR 2019/10/22 13:00 UTC NOAA

Hiroshima Airport, Japan (RJOA) 34-26N 132-55E 334M
Oct 22, 2019 - 09:00 AM EDT / 2019.10.22 1300 UTC
Wind: from the N (010 degrees) at 7 MPH (6 KT) (direction variable):0
Visibility: greater than 7 mile(s):0
Sky conditions: partly cloudy
Temperature: 62 F (17 C)
Dew Point: 48 F (9 C)
Relative Humidity: 59%
Pressure (altimeter): 30.00 in. Hg (1016 hPa)
ob: RJOA 221300Z 01006KT 340V050 9999 FEW020 SCT/// 17/09 Q1016
cycle: 13

Station Type Date Time Source
RJOA TAF 2019/10/22 18:28 UTC NOAA

TAF RJOA 221705Z 2218/2400 07007KT 9999 FEW020

Example: see airport list